createdAt,value
2022-10-04T00:01:12.502Z,13.98
2022-10-04T00:03:50.183Z,13.96
2022-10-04T00:06:24.417Z,13.99
2022-10-04T00:09:07.324Z,14.07
2022-10-04T00:11:37.666Z,14.12
2022-10-04T00:14:14.378Z,14.13
2022-10-04T00:16:47.001Z,14.25
2022-10-04T00:19:15.174Z,14.26
2022-10-04T00:22:10.581Z,14.16
2022-10-04T00:24:58.924Z,14.42
2022-10-04T00:27:28.297Z,14.67
2022-10-04T00:30:02.556Z,14.54
2022-10-04T00:32:45.709Z,14.49
2022-10-04T00:35:26.651Z,14.68
2022-10-04T00:38:06.618Z,14.46
2022-10-04T00:40:42.040Z,14.31
2022-10-04T00:43:26.050Z,14.04
2022-10-04T00:46:18.946Z,14.04
2022-10-04T00:48:52.025Z,14.19
2022-10-04T00:51:32.071Z,14.16
2022-10-04T00:54:46.566Z,14.32
2022-10-04T00:57:35.836Z,14.91
2022-10-04T01:00:15.163Z,14.88
2022-10-04T01:02:45.984Z,15.16
2022-10-04T01:05:30.202Z,15.37
2022-10-04T01:08:31.600Z,15.65
2022-10-04T01:11:12.768Z,15.79
2022-10-04T01:13:52.611Z,15.97
2022-10-04T01:16:27.942Z,15.97
2022-10-04T01:19:21.957Z,15.87
2022-10-04T01:22:05.058Z,16.07
2022-10-04T01:24:36.483Z,16.24
2022-10-04T01:27:25.079Z,15.99
2022-10-04T01:29:53.240Z,15.68
2022-10-04T01:32:21.613Z,15.85
2022-10-04T01:34:49.694Z,15.83
2022-10-04T01:37:18.362Z,15.84
2022-10-04T01:39:47.160Z,15.73
2022-10-04T01:42:29.281Z,15.73
2022-10-04T01:45:01.651Z,15.55
2022-10-04T01:47:52.030Z,15.30
2022-10-04T01:50:29.004Z,15.25
2022-10-04T01:53:09.067Z,15.76
2022-10-04T01:55:41.185Z,15.79
2022-10-04T01:58:28.099Z,15.67
2022-10-04T02:01:14.874Z,15.64
2022-10-04T02:03:51.622Z,15.64
2022-10-04T02:06:21.653Z,15.95
2022-10-04T02:08:51.962Z,15.82
2022-10-04T02:11:21.631Z,15.63
2022-10-04T02:13:53.212Z,15.44
2022-10-04T02:16:22.884Z,15.19
2022-10-04T02:18:52.109Z,15.00
2022-10-04T02:21:21.849Z,15.05
2022-10-04T02:23:52.493Z,15.43
2022-10-04T02:26:21.573Z,15.39
2022-10-04T02:28:50.264Z,15.43
2022-10-04T02:31:43.699Z,15.71
2022-10-04T02:34:12.521Z,16.22
2022-10-04T02:36:41.851Z,16.33
2022-10-04T02:39:20.647Z,16.40
2022-10-04T02:41:51.272Z,16.70
2022-10-04T02:44:28.376Z,16.59
2022-10-04T02:47:23.377Z,16.62
2022-10-04T02:50:01.612Z,16.36
2022-10-04T02:52:55.655Z,16.38
2022-10-04T02:55:28.043Z,16.38
2022-10-04T02:57:58.646Z,16.24
2022-10-04T03:00:31.922Z,16.02
2022-10-04T03:03:39.280Z,15.76
2022-10-04T03:06:11.824Z,15.92
2022-10-04T03:08:47.898Z,16.17
2022-10-04T03:11:19.080Z,16.18
2022-10-04T03:13:51.591Z,15.90
2022-10-04T03:16:21.061Z,15.58
2022-10-04T03:18:53.450Z,15.43
2022-10-04T03:21:23.396Z,15.84
2022-10-04T03:23:53.624Z,16.14
2022-10-04T03:26:32.128Z,16.30
2022-10-04T03:29:00.890Z,16.33
2022-10-04T03:31:30.126Z,16.49
2022-10-04T03:33:58.898Z,16.50
2022-10-04T03:36:30.661Z,16.18
2022-10-04T03:38:59.243Z,15.68
2022-10-04T03:41:27.933Z,15.25
2022-10-04T03:43:59.402Z,14.96
2022-10-04T03:46:30.111Z,14.74
2022-10-04T03:48:59.741Z,14.61
2022-10-04T03:51:28.209Z,14.61
2022-10-04T03:54:02.287Z,14.68
2022-10-04T03:56:33.017Z,14.57
2022-10-04T03:59:06.557Z,14.40
2022-10-04T04:01:54.532Z,14.44
2022-10-04T04:04:46.981Z,14.33
2022-10-04T04:07:21.248Z,14.24
2022-10-04T04:10:01.910Z,14.22
2022-10-04T04:12:48.105Z,14.11
2022-10-04T04:15:17.382Z,14.25
2022-10-04T04:17:52.608Z,14.32
2022-10-04T04:20:31.772Z,14.30
2022-10-04T04:23:15.867Z,14.34
2022-10-04T04:25:55.307Z,14.87
2022-10-04T04:28:41.085Z,15.38
2022-10-04T04:31:38.575Z,15.30
2022-10-04T04:34:20.829Z,15.16
2022-10-04T04:36:49.046Z,15.06
2022-10-04T04:39:35.821Z,15.03
2022-10-04T04:42:15.395Z,15.11
2022-10-04T04:45:01.044Z,15.15
2022-10-04T04:47:31.553Z,15.04
2022-10-04T04:50:11.168Z,14.94
2022-10-04T04:52:55.154Z,14.84
2022-10-04T04:55:27.247Z,14.43
2022-10-04T04:57:58.337Z,14.11
2022-10-04T05:00:33.325Z,14.01
2022-10-04T05:03:03.560Z,13.83
2022-10-04T05:05:35.170Z,13.71
2022-10-04T05:08:23.935Z,13.66
2022-10-04T05:11:21.490Z,13.54
2022-10-04T05:13:57.100Z,13.41
2022-10-04T05:16:48.820Z,13.36
2022-10-04T05:19:34.183Z,13.34
2022-10-04T05:22:12.365Z,13.38
2022-10-04T05:24:46.221Z,13.58
2022-10-04T05:27:17.894Z,13.68
2022-10-04T05:29:55.390Z,13.70
2022-10-04T05:32:33.729Z,13.73
2022-10-04T05:35:02.495Z,13.77
2022-10-04T05:38:06.430Z,13.94
2022-10-04T05:40:42.910Z,14.06
2022-10-04T05:43:27.057Z,14.18
2022-10-04T05:46:19.243Z,14.20
2022-10-04T05:48:56.053Z,14.25
2022-10-04T05:51:51.157Z,14.35
2022-10-04T05:54:23.198Z,14.50
2022-10-04T05:56:51.313Z,15.01
2022-10-04T05:59:19.433Z,15.83
2022-10-04T06:02:06.421Z,16.35
2022-10-04T06:04:53.238Z,16.62
2022-10-04T06:07:33.379Z,16.87
2022-10-04T06:10:39.547Z,16.95
2022-10-04T06:13:20.044Z,17.12
2022-10-04T06:16:12.024Z,17.44
2022-10-04T06:19:25.508Z,17.69
2022-10-04T06:22:14.296Z,18.01
2022-10-04T06:24:46.498Z,18.25
2022-10-04T06:27:26.219Z,18.37
2022-10-04T06:30:16.406Z,18.38
2022-10-04T06:33:20.213Z,17.45
2022-10-04T06:36:11.526Z,16.77
2022-10-04T06:39:05.404Z,17.24
2022-10-04T06:41:53.033Z,17.35
2022-10-04T06:44:36.584Z,17.44
2022-10-04T06:47:43.546Z,17.64
2022-10-04T06:50:12.543Z,17.33
2022-10-04T06:53:17.008Z,17.28
2022-10-04T06:56:14.639Z,17.91
2022-10-04T06:58:45.899Z,18.48
2022-10-04T07:01:23.571Z,18.57
2022-10-04T07:04:17.874Z,17.94
2022-10-04T07:07:35.821Z,17.16
2022-10-04T07:10:32.361Z,17.27
2022-10-04T07:13:03.768Z,17.32
2022-10-04T07:15:48.968Z,17.17
2022-10-04T07:18:29.359Z,17.10
2022-10-04T07:21:17.865Z,17.12
2022-10-04T07:23:57.825Z,17.45
2022-10-04T07:26:34.126Z,17.76
2022-10-04T07:29:22.454Z,17.77
2022-10-04T07:32:06.191Z,17.88
2022-10-04T07:34:47.856Z,17.67
2022-10-04T07:37:16.657Z,17.55
2022-10-04T07:40:07.721Z,17.44
2022-10-04T07:42:43.139Z,17.23
2022-10-04T07:45:24.152Z,17.19
2022-10-04T07:48:05.888Z,17.29
2022-10-04T07:50:46.170Z,17.35
2022-10-04T07:53:43.735Z,17.47
2022-10-04T07:56:38.912Z,17.42
2022-10-04T07:59:24.113Z,17.38
2022-10-04T08:02:17.466Z,17.37
2022-10-04T08:05:04.635Z,17.47
2022-10-04T08:07:55.435Z,17.56
2022-10-04T08:10:35.707Z,17.66
2022-10-04T08:13:24.624Z,17.79
2022-10-04T08:15:59.374Z,17.73
2022-10-04T08:18:43.571Z,17.58
2022-10-04T08:21:23.678Z,17.40
2022-10-04T08:23:55.072Z,17.15
2022-10-04T08:26:35.628Z,16.95
2022-10-04T08:29:44.728Z,16.69
2022-10-04T08:32:46.738Z,16.62
2022-10-04T08:35:28.224Z,16.49
2022-10-04T08:38:24.780Z,16.40
2022-10-04T08:41:06.259Z,16.45
2022-10-04T08:44:01.671Z,16.56
2022-10-04T08:46:48.357Z,16.93
2022-10-04T08:49:44.300Z,16.99
2022-10-04T08:52:21.576Z,16.66
2022-10-04T08:55:08.506Z,16.37
2022-10-04T08:57:48.858Z,16.23
2022-10-04T09:00:30.658Z,16.27
2022-10-04T09:03:24.788Z,16.33
2022-10-04T09:05:58.456Z,16.48
2022-10-04T09:08:29.721Z,17.16
2022-10-04T09:11:30.217Z,17.97
2022-10-04T09:14:24.403Z,18.84
2022-10-04T09:17:21.152Z,18.64
2022-10-04T09:20:19.722Z,17.67
2022-10-04T09:23:01.767Z,16.90
2022-10-04T09:25:59.851Z,17.27
2022-10-04T09:29:09.915Z,17.84
2022-10-04T09:32:10.258Z,17.90
2022-10-04T09:35:00.380Z,17.66
2022-10-04T09:38:06.838Z,17.30
2022-10-04T09:41:03.983Z,17.00
2022-10-04T09:43:42.580Z,17.19
2022-10-04T09:46:39.096Z,17.89
2022-10-04T09:49:40.307Z,17.28
2022-10-04T09:52:40.732Z,16.65
2022-10-04T09:55:42.404Z,16.15
2022-10-04T09:58:36.304Z,16.55
2022-10-04T10:01:14.451Z,17.04
2022-10-04T10:04:11.334Z,17.19
2022-10-04T10:06:52.100Z,17.38
2022-10-04T10:09:50.491Z,17.35
2022-10-04T10:13:21.419Z,17.03
2022-10-04T10:15:59.855Z,16.79
2022-10-04T10:19:13.157Z,16.76
2022-10-04T10:22:01.718Z,16.76
2022-10-04T10:25:05.855Z,16.69
2022-10-04T10:28:24.282Z,16.54
2022-10-04T10:31:21.536Z,16.34
2022-10-04T10:34:06.513Z,16.29
2022-10-04T10:37:01.426Z,16.27
2022-10-04T10:39:56.827Z,16.31
2022-10-04T10:43:13.027Z,16.37
2022-10-04T10:46:15.627Z,16.45
2022-10-04T10:48:53.300Z,16.56
2022-10-04T10:51:45.996Z,16.60
2022-10-04T10:54:34.357Z,16.48
2022-10-04T10:57:15.075Z,16.28
2022-10-04T11:00:37.816Z,16.09
2022-10-04T11:03:33.282Z,15.84
2022-10-04T11:06:07.971Z,15.68
2022-10-04T11:08:57.648Z,16.19
2022-10-04T11:12:05.949Z,17.09
2022-10-04T11:14:52.768Z,17.31
2022-10-04T11:17:42.547Z,16.98
2022-10-04T11:20:48.209Z,16.82
2022-10-04T11:23:25.350Z,16.77
2022-10-04T11:26:10.764Z,16.74
2022-10-04T11:29:01.362Z,16.72
2022-10-04T11:32:05.795Z,16.73
2022-10-04T11:34:58.124Z,16.76
2022-10-04T11:37:50.028Z,16.73
2022-10-04T11:40:43.024Z,16.62
2022-10-04T11:43:36.512Z,16.57
2022-10-04T11:46:19.662Z,16.56
2022-10-04T11:48:57.312Z,16.52
2022-10-04T11:52:06.441Z,16.52
2022-10-04T11:54:38.409Z,16.46
2022-10-04T11:57:44.850Z,16.40
2022-10-04T12:00:18.617Z,16.34
2022-10-04T12:03:09.579Z,16.27
2022-10-04T12:06:13.861Z,16.15
2022-10-04T12:09:06.398Z,16.00
2022-10-04T12:12:08.537Z,15.88
2022-10-04T12:14:59.845Z,15.94
2022-10-04T12:17:47.259Z,16.01
2022-10-04T12:20:51.586Z,16.05
2022-10-04T12:23:29.889Z,16.13
2022-10-04T12:26:10.257Z,16.20
2022-10-04T12:28:53.680Z,16.24
2022-10-04T12:31:26.178Z,16.25
2022-10-04T12:34:06.396Z,16.26
2022-10-04T12:36:37.596Z,16.29
2022-10-04T12:39:34.756Z,16.32
2022-10-04T12:42:18.263Z,16.35
2022-10-04T12:44:53.288Z,16.39
2022-10-04T12:47:40.611Z,16.48
2022-10-04T12:50:34.193Z,16.50
2022-10-04T12:53:03.067Z,16.53
2022-10-04T12:56:04.937Z,16.52
2022-10-04T12:58:39.452Z,16.52
2022-10-04T13:01:17.259Z,16.49
2022-10-04T13:04:04.985Z,16.47
2022-10-04T13:06:38.899Z,16.53
2022-10-04T13:09:31.909Z,16.54
2022-10-04T13:12:27.184Z,16.53
2022-10-04T13:15:02.492Z,16.58
2022-10-04T13:17:41.562Z,16.60
2022-10-04T13:20:27.938Z,16.66
2022-10-04T13:23:33.382Z,16.73
2022-10-04T13:26:31.239Z,16.77
2022-10-04T13:29:21.008Z,16.68
2022-10-04T13:31:55.595Z,16.57
2022-10-04T13:34:47.123Z,16.48
2022-10-04T13:37:31.561Z,16.43
2022-10-04T13:39:59.808Z,16.41
2022-10-04T13:42:43.353Z,16.41
2022-10-04T13:45:44.360Z,16.44
2022-10-04T13:48:22.179Z,16.51
2022-10-04T13:51:02.956Z,16.52
2022-10-04T13:54:06.989Z,16.43
2022-10-04T13:56:37.989Z,16.35
2022-10-04T13:59:34.577Z,16.32
2022-10-04T14:02:28.222Z,16.32
2022-10-04T14:05:19.236Z,16.36
2022-10-04T14:07:58.823Z,16.37
2022-10-04T14:10:29.930Z,16.40
2022-10-04T14:13:43.250Z,16.38
2022-10-04T14:16:41.782Z,16.24
2022-10-04T14:19:16.294Z,16.16
2022-10-04T14:22:24.881Z,16.10
2022-10-04T14:25:08.509Z,16.01
2022-10-04T14:28:03.175Z,15.92
2022-10-04T14:30:53.103Z,15.83
2022-10-04T14:33:33.807Z,15.75
2022-10-04T14:36:31.441Z,15.70
2022-10-04T14:39:37.088Z,15.65
2022-10-04T14:42:24.550Z,15.58
2022-10-04T14:45:08.326Z,15.58
2022-10-04T14:48:10.600Z,15.58
2022-10-04T14:50:59.040Z,15.63
2022-10-04T14:53:57.085Z,15.69
2022-10-04T14:57:01.164Z,15.77
2022-10-04T14:59:55.627Z,15.86
2022-10-04T15:02:37.153Z,15.88
2022-10-04T15:05:32.667Z,15.82
2022-10-04T15:08:27.141Z,15.79
2022-10-04T15:11:08.205Z,15.74
2022-10-04T15:13:55.675Z,15.72
2022-10-04T15:16:48.619Z,15.67
2022-10-04T15:19:50.259Z,15.61
2022-10-04T15:22:42.625Z,15.54
2022-10-04T15:25:38.984Z,15.47
2022-10-04T15:28:31.074Z,15.40
2022-10-04T15:31:10.191Z,15.34
2022-10-04T15:34:11.157Z,15.43
2022-10-04T15:37:05.446Z,16.54
2022-10-04T15:39:58.159Z,17.07
2022-10-04T15:42:34.750Z,16.64
2022-10-04T15:45:17.987Z,16.22
2022-10-04T15:47:56.296Z,15.90
2022-10-04T15:50:52.458Z,15.68
2022-10-04T15:53:40.401Z,15.47
2022-10-04T15:56:28.275Z,15.30
2022-10-04T15:59:20.631Z,15.40
2022-10-04T16:02:15.000Z,16.01
2022-10-04T16:05:15.569Z,17.07
2022-10-04T16:08:06.059Z,18.01
2022-10-04T16:11:04.942Z,18.31
2022-10-04T16:13:51.767Z,17.56
2022-10-04T16:16:40.892Z,16.90
2022-10-04T16:19:32.464Z,16.41
2022-10-04T16:22:41.407Z,16.03
2022-10-04T16:25:38.854Z,15.71
2022-10-04T16:28:32.460Z,15.46
2022-10-04T16:31:25.432Z,15.25
2022-10-04T16:34:07.677Z,15.34
2022-10-04T16:37:02.987Z,16.68
2022-10-04T16:39:57.999Z,17.93
2022-10-04T16:42:53.607Z,18.16
2022-10-04T16:45:50.213Z,17.38
2022-10-04T16:48:33.984Z,16.64
2022-10-04T16:51:18.983Z,16.15
2022-10-04T16:54:07.199Z,15.78
2022-10-04T16:56:58.113Z,15.46
2022-10-04T16:59:39.207Z,15.45
2022-10-04T17:02:34.671Z,16.12
2022-10-04T17:05:26.469Z,16.56
2022-10-04T17:08:16.559Z,16.52
2022-10-04T17:10:49.931Z,16.67
2022-10-04T17:13:50.842Z,16.96
2022-10-04T17:16:39.045Z,17.25
2022-10-04T17:19:32.394Z,16.79
2022-10-04T17:22:20.747Z,16.05
2022-10-04T17:25:09.342Z,15.48
2022-10-04T17:27:50.640Z,14.99
2022-10-04T17:30:43.522Z,14.73
2022-10-04T17:33:57.037Z,14.90
2022-10-04T17:36:39.801Z,15.70
2022-10-04T17:39:22.191Z,15.78
2022-10-04T17:42:24.411Z,15.57
2022-10-04T17:45:18.665Z,15.44
2022-10-04T17:48:30.326Z,15.38
2022-10-04T17:51:34.209Z,15.39
2022-10-04T17:54:39.144Z,15.31
2022-10-04T17:57:43.068Z,15.31
2022-10-04T18:00:25.855Z,15.34
2022-10-04T18:03:25.670Z,15.36
2022-10-04T18:06:03.367Z,15.32
2022-10-04T18:09:23.768Z,15.23
2022-10-04T18:12:21.793Z,15.06
2022-10-04T18:15:23.930Z,15.01
2022-10-04T18:18:23.069Z,14.90
2022-10-04T18:20:57.474Z,14.81
2022-10-04T18:23:36.414Z,14.80
2022-10-04T18:26:23.866Z,14.82
2022-10-04T18:29:01.307Z,14.78
2022-10-04T18:31:38.580Z,14.88
2022-10-04T18:34:20.239Z,14.97
2022-10-04T18:37:42.460Z,14.99
2022-10-04T18:40:37.943Z,14.96
2022-10-04T18:43:38.249Z,14.96
2022-10-04T18:46:26.368Z,14.94
2022-10-04T18:49:15.429Z,14.80
2022-10-04T18:52:34.217Z,14.70
2022-10-04T18:55:27.714Z,14.58
2022-10-04T18:58:56.140Z,14.45
2022-10-04T19:01:50.158Z,14.29
2022-10-04T19:04:29.606Z,14.25
2022-10-04T19:07:20.179Z,14.18
2022-10-04T19:10:14.424Z,14.05
2022-10-04T19:13:29.881Z,13.99
2022-10-04T19:16:16.511Z,13.88
2022-10-04T19:19:43.126Z,13.87
2022-10-04T19:22:56.563Z,13.86
2022-10-04T19:26:30.507Z,13.58
2022-10-04T19:29:26.803Z,13.38
2022-10-04T19:32:12.831Z,13.21
2022-10-04T19:35:19.993Z,13.12
2022-10-04T19:38:23.533Z,13.02
2022-10-04T19:41:33.050Z,13.11
2022-10-04T19:44:41.270Z,13.13
2022-10-04T19:47:54.893Z,12.86
2022-10-04T19:50:48.375Z,12.96
2022-10-04T19:53:25.707Z,13.16
2022-10-04T19:56:00.342Z,13.16
2022-10-04T19:59:20.381Z,13.31
2022-10-04T20:01:55.183Z,13.32
2022-10-04T20:04:46.313Z,13.16
2022-10-04T20:07:30.749Z,12.92
2022-10-04T20:10:41.445Z,12.91
2022-10-04T20:13:15.315Z,12.98
2022-10-04T20:15:54.755Z,13.06
2022-10-04T20:18:32.821Z,13.12
2022-10-04T20:21:09.860Z,13.14
2022-10-04T20:23:44.465Z,13.09
2022-10-04T20:26:54.819Z,13.00
2022-10-04T20:29:39.908Z,12.78
2022-10-04T20:32:38.773Z,12.66
2022-10-04T20:35:35.563Z,12.66
2022-10-04T20:38:31.253Z,12.81
2022-10-04T20:40:57.882Z,13.04
2022-10-04T20:43:28.832Z,13.16
2022-10-04T20:46:03.527Z,13.22
2022-10-04T20:48:35.411Z,13.18
2022-10-04T20:51:11.586Z,13.14
2022-10-04T20:53:52.471Z,13.10
2022-10-04T20:56:27.783Z,13.05
2022-10-04T20:59:03.274Z,12.97
2022-10-04T21:01:36.782Z,12.84
2022-10-04T21:04:47.005Z,12.71
2022-10-04T21:07:24.385Z,12.63
2022-10-04T21:10:18.489Z,12.50
2022-10-04T21:12:50.082Z,12.32
2022-10-04T21:15:21.079Z,12.32
2022-10-04T21:18:09.041Z,12.27
2022-10-04T21:20:46.826Z,12.15
2022-10-04T21:23:33.271Z,11.99
2022-10-04T21:26:23.417Z,11.92
2022-10-04T21:29:00.201Z,12.25
2022-10-04T21:31:29.128Z,12.72
2022-10-04T21:33:58.949Z,12.82
2022-10-04T21:36:28.375Z,12.77
2022-10-04T21:38:57.189Z,12.77
2022-10-04T21:41:28.643Z,12.81
2022-10-04T21:43:58.135Z,12.85
2022-10-04T21:46:27.886Z,12.91
2022-10-04T21:48:59.567Z,12.95
2022-10-04T21:51:37.362Z,12.99
2022-10-04T21:54:07.068Z,13.02
2022-10-04T21:56:35.509Z,13.10
2022-10-04T21:59:04.264Z,13.25
2022-10-04T22:05:15.771Z,13.27
2022-10-04T22:07:44.504Z,13.13
2022-10-04T22:10:13.261Z,13.00
2022-10-04T22:12:41.673Z,12.90
2022-10-04T22:15:10.531Z,13.10
2022-10-04T22:17:39.409Z,13.32
2022-10-04T22:20:09.575Z,13.20
2022-10-04T22:22:40.024Z,13.07
2022-10-04T22:25:20.324Z,12.97
2022-10-04T22:27:49.930Z,12.79
2022-10-04T22:30:22.611Z,12.72
2022-10-04T22:32:51.698Z,12.61
2022-10-04T22:35:21.116Z,12.53
2022-10-04T22:37:50.310Z,12.40
2022-10-04T22:40:22.840Z,12.26
2022-10-04T22:43:01.025Z,12.35
2022-10-04T22:45:33.611Z,12.81
2022-10-04T22:48:11.810Z,13.04
2022-10-04T22:50:40.367Z,13.08
2022-10-04T22:53:20.217Z,13.04
2022-10-04T22:55:56.572Z,13.00
2022-10-04T22:58:26.480Z,12.81
2022-10-04T23:00:55.380Z,12.57
2022-10-04T23:03:31.915Z,12.32
2022-10-04T23:06:02.873Z,12.33
2022-10-04T23:08:31.263Z,12.21
2022-10-04T23:11:00.736Z,12.17
2022-10-04T23:13:29.059Z,11.96
2022-10-04T23:16:10.350Z,11.80
2022-10-04T23:18:38.914Z,11.80
2022-10-04T23:21:21.024Z,12.08
2022-10-04T23:23:53.354Z,12.10
2022-10-04T23:26:24.651Z,12.31
2022-10-04T23:28:53.427Z,12.59
2022-10-04T23:31:27.407Z,13.27
2022-10-04T23:33:57.164Z,13.59
2022-10-04T23:36:25.492Z,13.61
2022-10-04T23:39:00.761Z,13.68
2022-10-04T23:41:29.450Z,14.38
2022-10-04T23:43:57.826Z,15.06
2022-10-04T23:46:25.893Z,15.41
2022-10-04T23:48:54.163Z,15.49
2022-10-04T23:51:22.854Z,15.31
2022-10-04T23:53:51.303Z,14.49
2022-10-04T23:56:23.543Z,13.63
2022-10-04T23:58:55.665Z,12.94
